createdAt,value
2022-08-05T00:00:23.433Z,526.70
2022-08-05T00:02:53.837Z,532.67
2022-08-05T00:06:02.495Z,535.58
2022-08-05T00:08:32.922Z,529.30
2022-08-05T00:11:00.369Z,514.65
2022-08-05T00:13:38.487Z,540.17
2022-08-05T00:16:12.914Z,523.85
2022-08-05T00:18:42.751Z,520.75
2022-08-05T00:21:14.509Z,542.50
2022-08-05T00:23:46.916Z,537.95
2022-08-05T00:26:32.326Z,518.53
2022-08-05T00:29:00.025Z,535.08
2022-08-05T00:31:54.400Z,546.65
2022-08-05T00:34:55.425Z,544.17
2022-08-05T00:37:13.094Z,553.22
2022-08-05T00:39:58.053Z,538.95
2022-08-05T00:42:32.484Z,526.55
2022-08-05T00:45:01.256Z,530.45
2022-08-05T00:47:53.318Z,548.80
2022-08-05T00:50:17.431Z,520.95
2022-08-05T00:52:45.397Z,549.15
2022-08-05T00:55:14.866Z,544.42
2022-08-05T00:57:58.508Z,548.33
2022-08-05T01:00:29.059Z,530.55
2022-08-05T01:02:58.162Z,548.80
2022-08-05T01:05:28.650Z,541.03
2022-08-05T01:08:42.202Z,534.95
2022-08-05T01:10:52.710Z,532.58
2022-08-05T01:13:57.390Z,546.17
2022-08-05T01:16:28.110Z,532.25
2022-08-05T01:19:18.599Z,535.90
2022-08-05T01:21:52.964Z,541.60
2022-08-05T01:24:31.465Z,539.43
2022-08-05T01:27:19.135Z,535.55
2022-08-05T01:29:52.763Z,528.28
2022-08-05T01:32:27.530Z,531.72
2022-08-05T01:34:59.369Z,531.92
2022-08-05T01:37:44.372Z,543.80
2022-08-05T01:40:18.018Z,539.03
2022-08-05T01:42:47.155Z,539.28
2022-08-05T01:45:16.591Z,548.10
2022-08-05T01:47:46.221Z,543.47
2022-08-05T01:50:29.379Z,540.72
2022-08-05T01:53:01.628Z,552.25
2022-08-05T01:55:36.088Z,561.22
2022-08-05T01:58:15.841Z,543.15
2022-08-05T02:00:50.251Z,546.25
2022-08-05T02:03:31.745Z,537.55
2022-08-05T02:06:33.586Z,543.70
2022-08-05T02:08:58.393Z,537.95
2022-08-05T02:11:34.106Z,547.03
2022-08-05T02:14:27.433Z,526.78
2022-08-05T02:16:59.210Z,540.70
2022-08-05T02:19:34.222Z,543.50
2022-08-05T02:25:12.486Z,522.45
2022-08-05T02:27:59.363Z,543.05
2022-08-05T02:30:35.289Z,540.47
2022-08-05T02:33:04.980Z,534.33
2022-08-05T02:35:37.813Z,540.63
2022-08-05T02:38:19.511Z,564.38
2022-08-05T02:40:47.908Z,543.05
2022-08-05T02:43:18.021Z,546.88
2022-08-05T02:45:51.951Z,546.65
2022-08-05T02:48:29.469Z,564.05
2022-08-05T02:51:01.438Z,542.17
2022-08-05T02:53:39.423Z,551.00
2022-08-05T02:56:15.991Z,546.10
2022-08-05T02:58:51.154Z,548.97
2022-08-05T03:01:24.248Z,546.13
2022-08-05T03:04:14.155Z,540.85
2022-08-05T03:06:55.892Z,542.50
2022-08-05T03:09:36.429Z,543.00
2022-08-05T03:12:07.822Z,547.30
2022-08-05T03:14:46.097Z,547.95
2022-08-05T03:17:16.091Z,554.28
2022-08-05T03:19:45.764Z,529.85
2022-08-05T03:22:16.225Z,546.65
2022-08-05T03:24:51.073Z,548.83
2022-08-05T03:27:21.177Z,542.97
2022-08-05T03:30:07.770Z,553.20
2022-08-05T03:32:37.903Z,549.53
2022-08-05T03:35:06.593Z,540.67
2022-08-05T03:37:46.306Z,545.85
2022-08-05T03:40:31.391Z,536.72
2022-08-05T03:43:16.024Z,544.15
2022-08-05T03:45:55.163Z,542.45
2022-08-05T03:48:30.196Z,559.53
2022-08-05T03:52:49.027Z,538.92
2022-08-05T03:55:00.516Z,545.65
2022-08-05T03:57:02.402Z,531.10
2022-08-05T03:59:54.493Z,541.90
2022-08-05T04:02:38.860Z,540.72
2022-08-05T04:05:14.151Z,541.63
2022-08-05T04:07:51.406Z,548.22
2022-08-05T04:10:37.145Z,555.13
2022-08-05T04:13:08.081Z,543.65
2022-08-05T04:15:36.787Z,552.60
2022-08-05T04:18:07.049Z,559.22
2022-08-05T04:20:35.977Z,535.58
2022-08-05T04:23:03.799Z,546.25
2022-08-05T04:25:56.562Z,554.08
2022-08-05T04:28:21.108Z,549.63
2022-08-05T04:31:00.864Z,557.80
2022-08-05T04:34:18.975Z,548.92
2022-08-05T04:36:45.790Z,549.55
2022-08-05T04:39:06.071Z,549.53
2022-08-05T04:41:37.715Z,558.28
2022-08-05T04:44:08.903Z,543.05
2022-08-05T04:46:38.209Z,549.30
2022-08-05T04:49:14.440Z,554.58
2022-08-05T04:51:44.245Z,542.03
2022-08-05T04:54:12.378Z,561.65
2022-08-05T04:56:40.264Z,548.25
2022-08-05T04:59:21.824Z,541.05
2022-08-05T05:02:07.229Z,539.78
2022-08-05T05:04:43.963Z,531.55
2022-08-05T05:07:12.280Z,545.97
2022-08-05T05:09:44.181Z,547.10
2022-08-05T05:12:12.382Z,537.38
2022-08-05T05:14:49.112Z,555.00
2022-08-05T05:17:23.513Z,559.38
2022-08-05T05:19:56.451Z,556.53
2022-08-05T05:22:26.318Z,558.80
2022-08-05T05:25:00.140Z,556.53
2022-08-05T05:27:44.231Z,559.78
2022-08-05T05:30:31.325Z,540.83
2022-08-05T05:33:13.961Z,541.47
2022-08-05T05:35:47.355Z,547.25
2022-08-05T05:38:26.875Z,539.38
2022-08-05T05:40:56.542Z,550.95
2022-08-05T05:43:54.280Z,540.55
2022-08-05T05:46:17.664Z,510.33
2022-08-05T05:48:48.913Z,516.75
2022-08-05T05:51:21.996Z,513.45
2022-08-05T05:53:58.343Z,512.20
2022-08-05T05:56:32.369Z,501.92
2022-08-05T05:59:06.672Z,501.25
2022-08-05T06:01:37.715Z,496.20
2022-08-05T06:04:12.168Z,478.15
2022-08-05T06:06:47.781Z,470.00
2022-08-05T06:09:35.370Z,480.05
2022-08-05T06:12:05.777Z,464.17
2022-08-05T06:14:40.137Z,459.02
2022-08-05T06:17:22.301Z,448.92
2022-08-05T06:19:56.872Z,426.70
2022-08-05T06:22:33.776Z,411.27
2022-08-05T06:25:24.704Z,415.38
2022-08-05T06:28:11.283Z,422.60
2022-08-05T06:30:39.599Z,413.45
2022-08-05T06:33:09.927Z,416.50
2022-08-05T06:36:03.508Z,426.65
2022-08-05T06:38:35.647Z,432.30
2022-08-05T06:41:05.541Z,414.73
2022-08-05T06:43:59.692Z,413.88
2022-08-05T06:46:30.174Z,424.48
2022-08-05T06:49:01.182Z,390.20
2022-08-05T06:51:31.584Z,398.65
2022-08-05T06:54:03.496Z,387.95
2022-08-05T06:56:34.754Z,380.33
2022-08-05T06:59:17.718Z,385.10
2022-08-05T07:01:46.203Z,381.63
2022-08-05T07:04:16.478Z,397.42
2022-08-05T07:06:50.721Z,371.38
2022-08-05T07:09:24.966Z,379.10
2022-08-05T07:11:53.113Z,368.33
2022-08-05T07:14:39.382Z,360.20
2022-08-05T07:18:00.822Z,349.13
2022-08-05T07:22:44.699Z,308.60
2022-08-05T07:25:23.487Z,296.55
2022-08-05T07:28:05.946Z,304.15
2022-08-05T07:30:38.979Z,305.13
2022-08-05T07:33:15.602Z,275.70
2022-08-05T07:36:03.792Z,286.77
2022-08-05T07:38:42.570Z,286.85
2022-08-05T07:42:13.148Z,267.27
2022-08-05T07:44:14.014Z,267.88
2022-08-05T07:46:49.400Z,266.75
2022-08-05T07:49:18.986Z,246.80
2022-08-05T07:51:53.441Z,242.25
2022-08-05T07:54:31.430Z,223.48
2022-08-05T07:57:17.748Z,230.73
2022-08-05T07:59:51.466Z,260.05
2022-08-05T08:02:26.771Z,228.57
2022-08-05T08:05:00.338Z,224.32
2022-08-05T08:07:29.150Z,205.32
2022-08-05T08:10:07.880Z,221.80
2022-08-05T08:12:49.494Z,209.30
2022-08-05T08:15:18.084Z,216.77
2022-08-05T08:18:13.697Z,196.65
2022-08-05T08:21:02.143Z,178.93
2022-08-05T08:24:03.904Z,192.20
2022-08-05T08:26:27.138Z,163.20
2022-08-05T08:29:21.912Z,174.70
2022-08-05T08:31:48.335Z,176.20
2022-08-05T08:34:29.955Z,182.27
2022-08-05T08:37:04.865Z,163.30
2022-08-05T08:39:37.844Z,169.52
2022-08-05T08:42:15.202Z,139.45
2022-08-05T08:45:24.352Z,121.50
2022-08-05T08:48:12.882Z,100.60
2022-08-05T08:51:04.068Z,104.43
2022-08-05T08:53:31.193Z,76.95
2022-08-05T08:56:05.607Z,83.55
2022-08-05T08:58:43.286Z,84.33
2022-08-05T09:01:16.224Z,92.30
2022-08-05T09:03:55.402Z,78.90
2022-08-05T09:06:28.086Z,119.35
2022-08-05T09:09:01.177Z,79.82
2022-08-05T09:11:50.465Z,69.10
2022-08-05T09:14:58.768Z,23.90
2022-08-05T09:17:09.560Z,23.08
2022-08-05T09:20:02.871Z,29.90
2022-08-05T09:23:18.625Z,23.48
2022-08-05T09:26:01.914Z,25.10
2022-08-05T09:28:34.048Z,22.63
2022-08-05T09:31:44.192Z,40.92
2022-08-05T09:33:59.059Z,47.50
2022-08-05T09:36:54.132Z,53.58
2022-08-05T09:39:27.822Z,57.70
2022-08-05T09:42:24.158Z,57.15
2022-08-05T09:45:03.576Z,62.00
2022-08-05T09:47:55.111Z,46.65
2022-08-05T09:50:38.447Z,47.42
2022-08-05T09:53:23.002Z,46.92
2022-08-05T09:56:04.918Z,44.05
2022-08-05T09:58:41.648Z,37.47
2022-08-05T10:01:15.703Z,36.63
2022-08-05T10:04:10.722Z,32.25
2022-08-05T10:06:58.949Z,28.05
2022-08-05T10:09:29.661Z,73.97
2022-08-05T10:12:18.654Z,95.40
2022-08-05T10:15:24.106Z,82.25
2022-08-05T10:18:09.037Z,79.18
2022-08-05T10:20:52.147Z,104.90
2022-08-05T10:23:55.550Z,108.55
2022-08-05T10:26:15.447Z,84.78
2022-08-05T10:28:45.008Z,85.00
2022-08-05T10:32:47.910Z,85.20
2022-08-05T10:34:03.622Z,84.35
2022-08-05T10:36:31.476Z,94.03
2022-08-05T10:39:15.071Z,92.68
2022-08-05T10:42:01.508Z,59.90
2022-08-05T10:44:31.550Z,34.83
2022-08-05T10:47:25.924Z,33.85
2022-08-05T10:50:31.521Z,31.77
2022-08-05T10:53:00.386Z,35.13
2022-08-05T10:55:28.414Z,26.77
2022-08-05T10:58:11.292Z,23.35
2022-08-05T11:00:47.409Z,32.28
2022-08-05T11:03:23.392Z,29.30
2022-08-05T11:06:15.604Z,27.42
2022-08-05T11:09:10.717Z,31.55
2022-08-05T11:11:52.691Z,28.38
2022-08-05T11:18:09.491Z,27.65
2022-08-05T11:20:44.045Z,36.40
2022-08-05T11:24:05.130Z,37.80
2022-08-05T11:26:32.426Z,25.55
2022-08-05T11:29:12.890Z,25.83
2022-08-05T11:31:56.485Z,25.75
2022-08-05T11:34:52.095Z,22.50
2022-08-05T11:38:29.464Z,22.52
2022-08-05T11:41:34.500Z,27.23
2022-08-05T11:44:05.002Z,35.75
2022-08-05T11:47:09.868Z,40.75
2022-08-05T11:49:37.495Z,38.83
2022-08-05T11:52:11.576Z,41.33
2022-08-05T11:57:25.659Z,20.10
2022-08-05T11:59:55.610Z,20.95
2022-08-05T12:02:30.015Z,25.75
2022-08-05T12:05:00.658Z,28.35
2022-08-05T12:08:09.296Z,35.78
2022-08-05T12:10:43.128Z,55.95
2022-08-05T12:13:17.288Z,67.45
2022-08-05T12:15:56.137Z,1.30
2022-08-05T12:18:34.638Z,1.20
2022-08-05T12:21:26.935Z,1.15
2022-08-05T12:24:09.395Z,1.30
2022-08-05T12:26:53.616Z,0.90
2022-08-05T12:31:54.223Z,1.05
2022-08-05T12:34:28.445Z,1.20
2022-08-05T12:37:00.084Z,1.55
2022-08-05T12:39:37.429Z,1.35
2022-08-05T12:42:30.030Z,1.33
2022-08-05T12:45:09.460Z,1.35
2022-08-05T12:47:43.525Z,1.55
2022-08-05T12:50:26.425Z,2.10
2022-08-05T12:53:00.122Z,1.48
2022-08-05T12:55:32.930Z,1.83
2022-08-05T12:58:51.068Z,1.67
2022-08-05T13:02:02.059Z,1.73
2022-08-05T13:03:43.363Z,1.30
2022-08-05T13:06:17.914Z,1.52
2022-08-05T13:08:51.454Z,1.83
2022-08-05T13:12:00.001Z,1.52
2022-08-05T13:14:24.891Z,1.38
2022-08-05T13:17:10.305Z,1.48
2022-08-05T13:19:52.133Z,1.30
2022-08-05T13:22:27.943Z,1.80
2022-08-05T13:25:00.726Z,1.95
2022-08-05T13:27:39.293Z,1.92
2022-08-05T13:30:34.543Z,2.00
2022-08-05T13:33:01.121Z,1.90
2022-08-05T13:35:43.049Z,1.83
2022-08-05T13:38:28.283Z,1.90
2022-08-05T13:41:02.058Z,2.13
2022-08-05T13:43:44.529Z,2.20
2022-08-05T13:46:30.816Z,1.90
2022-08-05T13:49:10.457Z,2.22
2022-08-05T13:51:46.687Z,2.03
2022-08-05T13:54:24.794Z,1.70
2022-08-05T13:56:52.995Z,1.88
2022-08-05T13:59:23.833Z,3.47
2022-08-05T14:01:59.068Z,3.67
2022-08-05T14:04:54.149Z,2.90
2022-08-05T14:07:56.885Z,2.80
2022-08-05T14:10:18.908Z,2.85
2022-08-05T14:12:48.804Z,2.67
2022-08-05T14:16:04.465Z,2.90
2022-08-05T14:18:05.922Z,2.65
2022-08-05T14:20:43.190Z,2.90
2022-08-05T14:23:23.425Z,3.30
2022-08-05T14:25:59.017Z,2.00
2022-08-05T14:28:29.141Z,3.10
2022-08-05T14:31:01.428Z,2.60
2022-08-05T14:33:56.687Z,2.70
2022-08-05T14:36:21.642Z,2.55
2022-08-05T14:38:51.204Z,3.28
2022-08-05T14:41:19.204Z,2.33
2022-08-05T14:44:01.539Z,2.42
2022-08-05T14:46:34.993Z,3.00
2022-08-05T14:49:07.239Z,3.05
2022-08-05T14:51:42.882Z,2.95
2022-08-05T14:57:00.045Z,2.63
2022-08-05T14:59:29.531Z,3.22
2022-08-05T15:04:43.450Z,3.08
2022-08-05T15:08:08.893Z,2.67
2022-08-05T15:10:01.634Z,2.40
2022-08-05T15:12:51.631Z,5.47
2022-08-05T15:15:55.647Z,3.75
2022-08-05T15:18:10.229Z,2.92
2022-08-05T15:20:46.735Z,2.70
2022-08-05T15:23:15.782Z,2.95
2022-08-05T15:25:53.030Z,2.95
2022-08-05T15:28:27.417Z,2.50
2022-08-05T15:30:55.688Z,3.15
2022-08-05T15:34:05.686Z,2.92
2022-08-05T15:36:17.422Z,3.20
2022-08-05T15:40:58.917Z,3.13
2022-08-05T15:41:57.943Z,3.60
2022-08-05T15:44:28.051Z,3.13
2022-08-05T15:47:00.821Z,2.72
2022-08-05T15:49:53.685Z,2.55
2022-08-05T15:52:52.163Z,3.20
2022-08-05T15:55:10.406Z,3.40
2022-08-05T15:57:45.075Z,2.92
2022-08-05T16:00:16.665Z,2.90
2022-08-05T16:02:44.903Z,3.65
2022-08-05T16:05:12.905Z,3.35
2022-08-05T16:07:46.683Z,2.90
2022-08-05T16:10:17.002Z,2.88
2022-08-05T16:12:51.557Z,3.20
2022-08-05T16:15:21.805Z,3.50
2022-08-05T16:17:57.733Z,3.22
2022-08-05T16:20:26.222Z,3.05
2022-08-05T16:22:56.133Z,2.80
2022-08-05T16:25:32.290Z,3.17
2022-08-05T16:28:10.395Z,3.20
2022-08-05T16:30:38.527Z,3.25
2022-08-05T16:33:06.589Z,3.70
2022-08-05T16:35:42.405Z,3.13
2022-08-05T16:38:18.699Z,2.75
2022-08-05T16:41:00.180Z,3.20
2022-08-05T16:43:31.614Z,3.08
2022-08-05T16:46:04.032Z,2.80
2022-08-05T16:48:38.507Z,3.03
2022-08-05T16:51:09.684Z,2.95
2022-08-05T16:54:05.615Z,2.53
2022-08-05T16:56:35.469Z,3.08
2022-08-05T16:59:09.164Z,3.15
2022-08-05T17:01:53.803Z,3.15
2022-08-05T17:04:28.374Z,2.97
2022-08-05T17:07:01.793Z,3.05
2022-08-05T17:09:57.187Z,3.25
2022-08-05T17:12:22.544Z,2.45
2022-08-05T17:15:15.406Z,3.75
2022-08-05T17:17:44.428Z,2.90
2022-08-05T17:20:14.737Z,3.00
2022-08-05T17:22:43.075Z,3.22
2022-08-05T17:25:33.487Z,3.25
2022-08-05T17:28:02.395Z,3.30
2022-08-05T17:30:31.307Z,3.40
2022-08-05T17:32:59.117Z,3.22
2022-08-05T17:35:27.030Z,3.22
2022-08-05T17:38:04.910Z,3.10
2022-08-05T17:40:34.147Z,3.33
2022-08-05T17:43:07.792Z,3.30
2022-08-05T17:45:38.987Z,3.08
2022-08-05T17:48:08.171Z,3.25
2022-08-05T17:50:36.357Z,3.28
2022-08-05T17:53:05.190Z,3.25
2022-08-05T17:55:37.618Z,3.80
2022-08-05T17:58:09.711Z,2.97
2022-08-05T18:00:45.244Z,3.33
2022-08-05T18:06:15.044Z,3.05
2022-08-05T18:08:52.327Z,2.30
2022-08-05T18:11:33.150Z,3.28
2022-08-05T18:14:06.729Z,3.20
2022-08-05T18:16:46.856Z,3.50
2022-08-05T18:19:22.495Z,3.13
2022-08-05T18:22:09.137Z,3.10
2022-08-05T18:24:41.413Z,3.45
2022-08-05T18:27:18.115Z,2.88
2022-08-05T18:29:53.711Z,3.47
2022-08-05T18:32:27.965Z,3.13
2022-08-05T18:34:57.919Z,2.67
2022-08-05T18:37:33.995Z,4.00
2022-08-05T18:41:49.926Z,3.03
2022-08-05T18:42:58.409Z,3.63
2022-08-05T18:45:41.691Z,3.03
2022-08-05T18:48:11.010Z,3.20
2022-08-05T18:52:03.189Z,2.97
2022-08-05T18:53:50.391Z,3.28
2022-08-05T18:56:21.660Z,3.95
2022-08-05T18:58:50.930Z,2.92
2022-08-05T19:01:47.244Z,3.03
2022-08-05T19:04:23.969Z,3.08
2022-08-05T19:06:56.105Z,3.25
2022-08-05T19:09:25.152Z,2.88
2022-08-05T19:12:00.041Z,2.53
2022-08-05T19:14:52.325Z,3.05
2022-08-05T19:17:18.270Z,2.65
2022-08-05T19:19:49.530Z,2.13
2022-08-05T19:22:22.733Z,1.83
2022-08-05T19:25:00.742Z,2.53
2022-08-05T19:27:31.757Z,1.40
2022-08-05T19:30:01.302Z,1.92
2022-08-05T19:32:35.619Z,1.60
2022-08-05T19:35:06.372Z,1.70
2022-08-05T19:38:04.388Z,1.60
2022-08-05T19:40:24.288Z,1.35
2022-08-05T19:43:00.908Z,1.20
2022-08-05T19:45:36.598Z,1.20
2022-08-05T19:48:05.726Z,1.42
2022-08-05T19:50:38.177Z,1.20
2022-08-05T19:53:11.643Z,1.30
2022-08-05T19:56:15.568Z,1.20
2022-08-05T19:58:30.076Z,1.15
2022-08-05T20:01:00.743Z,1.40
2022-08-05T20:03:40.548Z,1.50
2022-08-05T20:06:15.355Z,1.35
2022-08-05T20:08:47.432Z,1.00
2022-08-05T20:11:17.828Z,1.27
2022-08-05T20:13:58.349Z,1.02
2022-08-05T20:16:34.706Z,1.50
2022-08-05T20:19:04.457Z,1.67
2022-08-05T20:21:33.167Z,1.10
2022-08-05T20:24:01.271Z,1.30
2022-08-05T20:26:29.472Z,1.35
2022-08-05T20:29:01.174Z,1.33
2022-08-05T20:31:42.243Z,1.75
2022-08-05T20:34:17.584Z,1.20
2022-08-05T20:36:45.540Z,1.42
2022-08-05T20:39:13.834Z,0.90
2022-08-05T20:41:47.894Z,1.23
2022-08-05T20:44:30.504Z,1.40
2022-08-05T20:47:04.537Z,1.35
2022-08-05T20:52:08.647Z,1.10
2022-08-05T20:54:55.285Z,1.20
2022-08-05T20:57:42.678Z,1.40
2022-08-05T21:00:34.879Z,1.50
2022-08-05T21:03:10.500Z,1.08
2022-08-05T21:08:41.814Z,1.27
2022-08-05T21:12:06.987Z,1.20
2022-08-05T21:14:01.720Z,1.05
2022-08-05T21:16:30.772Z,1.40
2022-08-05T21:19:00.870Z,1.40
2022-08-05T21:21:39.818Z,1.20
2022-08-05T21:24:15.498Z,1.70
2022-08-05T21:26:50.563Z,1.58
2022-08-05T21:29:31.509Z,1.10
2022-08-05T21:32:02.251Z,1.02
2022-08-05T21:34:31.573Z,1.60
2022-08-05T21:37:00.868Z,1.15
2022-08-05T21:39:29.559Z,1.20
2022-08-05T21:42:01.228Z,1.35
2022-08-05T21:44:31.739Z,1.50
2022-08-05T21:47:00.601Z,1.30
2022-08-05T21:49:48.115Z,1.33
2022-08-05T21:52:27.300Z,1.10
2022-08-05T21:55:06.487Z,1.63
2022-08-05T21:57:35.982Z,1.13
2022-08-05T22:00:11.340Z,1.40
2022-08-05T22:02:43.429Z,1.23
2022-08-05T22:05:12.657Z,0.98
2022-08-05T22:07:59.017Z,1.00
2022-08-05T22:10:31.005Z,1.25
2022-08-05T22:13:09.158Z,1.20
2022-08-05T22:16:00.815Z,0.95
2022-08-05T22:18:32.702Z,0.80
2022-08-05T22:21:00.754Z,1.42
2022-08-05T22:24:02.076Z,1.10
2022-08-05T22:26:50.506Z,1.50
2022-08-05T22:29:26.853Z,1.25
2022-08-05T22:32:02.926Z,1.05
2022-08-05T22:34:31.987Z,1.00
2022-08-05T22:37:00.714Z,1.58
2022-08-05T22:39:33.951Z,1.20
2022-08-05T22:42:11.592Z,1.15
2022-08-05T22:44:48.161Z,0.75
2022-08-05T22:47:30.055Z,1.10
2022-08-05T22:50:22.889Z,1.00
2022-08-05T22:52:52.419Z,0.90
2022-08-05T22:55:22.377Z,0.82
2022-08-05T22:57:51.880Z,1.42
2022-08-05T23:00:21.618Z,0.95
2022-08-05T23:02:52.100Z,1.00
2022-08-05T23:05:22.486Z,1.20
2022-08-05T23:07:51.723Z,1.52
2022-08-05T23:10:23.948Z,1.25
2022-08-05T23:12:54.896Z,0.90
2022-08-05T23:15:29.984Z,0.88
2022-08-05T23:18:03.400Z,1.35
2022-08-05T23:20:37.215Z,1.27
2022-08-05T23:23:08.208Z,1.35
2022-08-05T23:25:53.094Z,1.10
2022-08-05T23:28:29.005Z,0.90
2022-08-05T23:34:04.606Z,1.08
2022-08-05T23:36:38.454Z,1.38
2022-08-05T23:39:09.880Z,0.98
2022-08-05T23:41:48.459Z,1.02
2022-08-05T23:44:17.048Z,0.85
2022-08-05T23:46:47.863Z,1.00
2022-08-05T23:49:23.837Z,1.08
2022-08-05T23:54:51.082Z,1.17
2022-08-05T23:57:19.176Z,1.10
